Terminal Aerodrome Forecast
Issued by NWS

Home | Current Version | Previous Version | Text Only | Print | Product List | Glossary Off
Versions: 1 2 3 4 5 6 7 8 9 10 11 12 13 14 15 16

000
FTUS43 KIWX 272339
TAFSBN
TAF
KSBN 272339Z 2800/2824 33012KT P6SM SCT080
     FM280200 32004KT P6SM SCT080
     FM281400 28006KT P6SM FEW050 BKN250
     FM282200 17008KT P6SM BKN045=

USA.gov is the U.S. government's official web portal to all federal, state and local government web resources and services.